KFXE/FXE METAR and TAF weather

Enter ICAO airport designator
Station Type Date Time Source
KFXE METAR 2019/04/18 09:53 UTC NOAA

KFXE 180953Z 10007KT 10SM SCT022 24/21 A2998 RMK AO2 SLP154 T02440211


Station Type Date Time Source
KFXE Decoded METAR 2019/04/18 09:53 UTC NOAA

FORT LAUDERDALE EXECUTIVE, FL, United States (KFXE) 26-12N 080-11W 6M
Apr 18, 2019 - 05:53 AM EDT / 2019.04.18 0953 UTC
Wind: from the E (100 degrees) at 8 MPH (7 KT):0
Visibility: 10 mile(s):0
Sky conditions: partly cloudy
Temperature: 75.9 F (24.4 C)
Dew Point: 70.0 F (21.1 C)
Relative Humidity: 81%
Pressure (altimeter): 29.98 in. Hg (1015 hPa)
ob: KFXE 180953Z 10007KT 10SM SCT022 24/21 A2998 RMK AO2 SLP154 T02440211
cycle: 10

Station Type Date Time Source
KFXE TAF 2019/04/18 10:58 UTC NOAA

TAF
AMD KFXE 180956Z 1810/1906 10007KT P6SM SCT035
FM181400 12012KT P6SM SCT035
FM181700 13015G25KT P6SM SCT025 SCT050
FM190300 14011KT P6SM SCT030 BKN060 BKN250

Example: see airport list